createdAt,value
2022-12-08T00:20:03.351Z,99962.63
2022-12-08T00:50:06.882Z,99984.83
2022-12-08T01:20:10.980Z,100010.28
2022-12-08T01:50:14.320Z,100025.20
2022-12-08T02:20:17.254Z,100026.84
2022-12-08T02:50:20.711Z,100036.22
2022-12-08T03:20:24.576Z,100008.08
2022-12-08T03:50:27.955Z,99997.77
2022-12-08T04:20:31.558Z,99989.95
2022-12-08T04:50:34.780Z,99966.07
2022-12-08T05:20:38.098Z,99953.98
2022-12-08T05:50:41.652Z,99943.16
2022-12-08T06:20:45.072Z,99954.61
2022-12-08T06:50:48.254Z,99931.00
2022-12-08T07:20:51.993Z,99924.44
2022-12-08T07:50:55.374Z,99905.70
2022-12-08T08:21:06.733Z,99907.52
2022-12-08T08:51:21.557Z,99904.09
2022-12-08T09:21:24.547Z,99899.88
2022-12-08T09:51:27.999Z,99877.63
2022-12-08T10:21:31.681Z,99864.70
2022-12-08T10:51:34.799Z,99854.39
2022-12-08T11:21:38.826Z,99857.78
2022-12-08T11:51:42.050Z,99835.23
2022-12-08T12:21:44.961Z,99811.88
2022-12-08T12:51:48.352Z,99789.25
2022-12-08T13:21:51.236Z,99786.52
2022-12-08T14:22:18.431Z,99759.13
2022-12-08T14:52:21.343Z,99759.38
2022-12-08T15:22:24.445Z,99768.92
2022-12-08T15:52:27.426Z,99759.50
2022-12-08T16:52:54.798Z,99747.47
2022-12-08T17:22:57.743Z,99758.72
2022-12-08T17:53:01.057Z,99755.39
2022-12-08T18:23:04.244Z,99766.61
2022-12-08T18:53:07.670Z,99779.47
2022-12-08T19:23:12.035Z,99787.97
2022-12-08T19:53:15.623Z,99800.75
2022-12-08T20:23:19.085Z,99818.00
2022-12-08T20:53:22.514Z,99841.32
2022-12-08T21:23:25.815Z,99855.19
2022-12-08T21:53:29.070Z,99855.20
2022-12-08T22:23:32.668Z,99850.09
2022-12-08T22:53:35.499Z,99878.38
2022-12-08T23:23:39.720Z,99886.98
2022-12-08T23:53:43.599Z,99887.85
